Data for 05/12/2017

Time Sea-Level Adjusted Pressure Absolute Pressure Temperature Relative Humidity Dew Point   
(mb) (inHg) (mb) (inHg) (C) (F) (%) (C) (F)
00:05 1016 30 845 24.95 14.4 58 38 0.5 32.9
00:10 1016 30 845 24.95 14.7 58.4 37 0.4 32.7
00:15 1016 30 845 24.95 15.1 59.1 35 -0 32
00:20 1016 30 845 24.95 15.3 59.5 35 -0 32
00:25 1016 30 845 24.95 15.5 59.9 34 -0.2 31.6
00:30 1016 30 845 24.95 15.6 60.2 34 -0.1 31.8
00:35 1016 30 845 24.95 15.8 60.5 34 0 32
00:40 1016 30 845 24.95 15.6 60.1 34 -0.2 31.6
00:45 1016 30 845 24.95 15.8 60.5 34 0.1 32.1
00:50 1016 30 845 24.95 15.5 59.8 39 1.7 35.1
00:55 1016 30 845 24.95 14.6 58.3 41 1.5 34.7
01:00 1016 30 845 24.95 14.5 58.1 39 1 33.8
01:05 1016 30 845 24.95 14.6 58.3 40 1.1 34
01:10 1016 30 845 24.95 14.9 58.7 37 0.5 32.9
01:15 1016 30 845 24.95 15.2 59.3 39 1.3 34.3
01:20 1016 30 845 24.95 14.8 58.6 40 1.4 34.4
01:25 1016 30 845 24.95 14.8 58.7 37 0.4 32.8
01:30 1016 30 845 24.95 15.3 59.6 37 0.9 33.6
01:35 1016 30 845 24.95 15.3 59.6 40 1.7 35.1
01:40 1016 30 845 24.95 14.9 58.8 40 1.4 34.5
01:45 1016 30 846 24.98 14.7 58.4 38 0.5 32.9
01:50 1016 30 845 24.95 15.3 59.5 38 1 33.8
01:55 1016 30 845 24.95 15.1 59.1 38 0.9 33.7
02:00 1016 30 845 24.95 15.1 59.2 38 0.9 33.6
02:05 1016 30 846 24.98 15.1 59.3 38 0.9 33.6
02:10 1016 30 846 24.98 15.1 59.2 38 1.1 34
02:15 1016 30 845 24.95 14.9 58.7 40 1.6 34.9
02:20 1016 30 845 24.95 14.2 57.5 42 1.5 34.7
02:25 1016 30 845 24.95 14 57.1 43 1.6 34.9
02:30 1016 30 845 24.95 13.7 56.6 43 1.3 34.3
02:35 1016 30 845 24.95 13.7 56.6 43 1.5 34.6
02:40 1016 30 845 24.95 13.7 56.6 42 1.2 34.1
02:45 1016 30 845 24.95 13.6 56.4 43 1.4 34.6
02:50 1016 30 845 24.95 13.4 56.2 43 1.1 33.9
02:55 1015 29.97 845 24.95 13.7 56.6 42 1.2 34.2
03:00 1015 29.97 845 24.95 13.7 56.7 42 1.2 34.1
03:05 1015 29.97 845 24.95 13.5 56.3 44 1.4 34.5
03:10 1015 29.97 845 24.95 13.1 55.7 45 1.5 34.6
03:15 1015 29.97 845 24.95 12.7 54.9 48 2.1 35.8
03:20 1015 29.97 844 24.92 11.9 53.4 51 2.1 35.7
03:25 1015 29.97 844 24.92 11.2 52.2 54 2.3 36.1
03:30 1015 29.97 844 24.92 10.9 51.7 52 1.5 34.7
03:35 1015 29.97 844 24.92 11.4 52.6 50 1.5 34.6
03:40 1015 29.97 844 24.92 11.6 52.9 50 1.6 34.9
03:45 1015 29.97 844 24.92 11.7 53 50 1.8 35.2
03:50 1015 29.97 844 24.92 11.4 52.4 52 2 35.5
03:55 1015 29.97 844 24.92 11.5 52.6 51 1.8 35.2
04:00 1015 29.97 844 24.92 11.4 52.6 50 1.3 34.3
04:05 1015 29.97 844 24.92 11.9 53.4 49 1.4 34.6
04:10 1015 29.97 844 24.92 12 53.6 48 1.5 34.6
04:15 1015 29.97 844 24.92 12.1 53.8 48 1.5 34.7
04:20 1015 29.97 844 24.92 12.2 54 47 1.4 34.6
04:25 1015 29.97 844 24.92 12.3 54.1 46 1.1 34
04:30 1014 29.94 844 24.92 12.5 54.5 46 1.2 34.2
04:35 1014 29.94 844 24.92 12.3 54.1 48 1.5 34.8
04:40 1014 29.94 844 24.92 12.4 54.4 45 0.9 33.7
04:45 1014 29.94 844 24.92 12.7 54.8 46 1.5 34.7
04:50 1014 29.94 844 24.92 12.5 54.5 46 1.4 34.5
04:55 1014 29.94 844 24.92 12.7 54.8 46 1.4 34.6
05:00 1014 29.94 843 24.89 12.4 54.4 46 1.3 34.3
05:05 1014 29.94 843 24.89 12.6 54.8 46 1.3 34.3
05:10 1014 29.94 843 24.89 12.7 54.9 45 1 33.9
05:15 1014 29.94 843 24.89 12.8 55 44 1 33.9
05:20 1014 29.94 843 24.89 12.7 54.9 44 0.8 33.4
05:25 1014 29.94 843 24.89 13.1 55.6 44 1.1 34
05:30 1014 29.94 843 24.89 13.1 55.7 43 0.9 33.7
05:35 1014 29.94 843 24.89 13.1 55.5 44 1.1 33.9
05:40 1014 29.94 843 24.89 12.9 55.2 44 0.9 33.7
05:45 1014 29.94 843 24.89 13 55.3 44 1.1 33.9
05:50 1014 29.94 843 24.89 12.7 54.9 46 1.4 34.5
05:55 1014 29.94 843 24.89 12.3 54.1 47 1.4 34.6
06:00 1014 29.94 843 24.89 12.1 53.9 48 1.5 34.7
06:05 1014 29.94 843 24.89 12.2 54 46 1 33.7
06:10 1014 29.94 843 24.89 12.4 54.3 45 0.9 33.6
06:15 1013 29.91 843 24.89 12.9 55.2 43 0.6 33.1
06:20 1013 29.91 843 24.89 13.4 56 42 0.7 33.3
06:25 1013 29.91 843 24.89 13.6 56.4 41 0.6 33.1
06:30 1013 29.91 843 24.89 13.7 56.6 42 0.9 33.7
06:35 1013 29.91 842 24.86 13.8 56.9 40 0.5 32.9
06:40 1013 29.91 842 24.86 14.2 57.6 39 0.7 33.3
06:45 1013 29.91 842 24.86 14.3 57.8 39 0.6 33.2
06:50 1013 29.91 842 24.86 14.6 58.2 39 0.7 33.2
06:55 1013 29.91 842 24.86 14.6 58.3 39 0.8 33.5
07:00 1013 29.91 842 24.86 14.8 58.7 37 0.5 32.9
07:05 1013 29.91 842 24.86 15.2 59.4 36 0.4 32.7
07:10 1013 29.91 842 24.86 15.4 59.7 36 0.6 33.1
07:15 1013 29.91 842 24.86 15.6 60.1 35 0.5 32.8
07:20 1013 29.91 842 24.86 15.9 60.6 35 0.4 32.7
07:25 1013 29.91 842 24.86 16.2 61.1 33 -0.1 31.8
07:30 1013 29.91 842 24.86 16.4 61.4 32 -0.2 31.7
07:35 1013 29.91 842 24.86 16.6 61.9 31 -0.6 30.9
07:40 1013 29.91 842 24.86 16.9 62.4 30 -0.9 30.5
07:45 1013 29.91 842 24.86 17 62.6 29 -0.8 30.5
07:50 1013 29.91 842 24.86 17 62.7 29 -0.8 30.6
07:55 1013 29.91 842 24.86 17.1 62.8 29 -0.8 30.6
08:00 1013 29.91 842 24.86 17.1 62.7 30 -0.3 31.4
08:05 1013 29.91 842 24.86 17 62.5 30 -0.5 31.1
08:10 1012 29.88 842 24.86 16.9 62.5 32 0 32
08:15 1012 29.88 842 24.86 16.8 62.2 32 0.1 32.2
08:20 1012 29.88 842 24.86 16.9 62.5 31 -0.4 31.3
08:25 1012 29.88 842 24.86 17.4 63.3 28 -1.4 29.5
08:30 1012 29.88 841 24.83 18 64.4 27 -1.2 29.8
08:35 1012 29.88 841 24.83 18.2 64.7 27 -0.9 30.4
08:40 1012 29.88 841 24.83 18.4 65.1 28 -0.1 31.8
08:45 1012 29.88 841 24.83 18.6 65.5 25 -1.8 28.8
08:50 1012 29.88 842 24.86 18.9 65.9 27 -0.4 31.2
08:55 1012 29.88 842 24.86 18.8 65.8 28 0.1 32.2
09:00 1012 29.88 842 24.86 18.7 65.6 29 0.4 32.7
09:05 1012 29.88 842 24.86 18.6 65.5 28 0 32
09:10 1012 29.88 841 24.83 18.9 66 26 -0.8 30.5
09:15 1012 29.88 841 24.83 19.2 66.6 27 -0.2 31.6
09:20 1012 29.88 841 24.83 19.3 66.7 28 0.3 32.5
09:25 1012 29.88 841 24.83 19.2 66.6 26 -0.8 30.6
09:30 1012 29.88 841 24.83 19.3 66.8 27 -0.2 31.6
09:35 1012 29.88 841 24.83 19.4 66.8 28 0.5 32.9
09:40 1012 29.88 841 24.83 19.4 66.9 27 0.2 32.4
09:45 1012 29.88 841 24.83 19.6 67.2 26 -0.2 31.6
09:50 1012 29.88 841 24.83 20.2 68.3 26 0.5 32.8
09:55 1012 29.88 841 24.83 20.7 69.3 26 0.9 33.6
10:00 1012 29.88 841 24.83 20.9 69.7 26 0.8 33.4
10:05 1012 29.88 841 24.83 21.1 70 24 0.1 32.2
10:10 1012 29.88 841 24.83 21.7 71.1 22 -0.6 31
10:15 1012 29.88 841 24.83 22.1 71.7 25 1.2 34.1
10:20 1011 29.85 841 24.83 22.3 72.2 22 -0.5 31
10:25 1011 29.85 841 24.83 22.4 72.2 23 0.3 32.6
10:30 1011 29.85 840 24.81 22.5 72.5 21 -0.8 30.6
10:35 1011 29.85 840 24.81 23.2 73.8 19 -1.6 29.1
10:40 1011 29.85 840 24.81 23.4 74.2 18 -2.2 28.1
10:45 1011 29.85 840 24.81 23.4 74.1 18 -2.1 28.1
10:50 1011 29.85 840 24.81 23.4 74 17 -2.6 27.3
10:55 1011 29.85 840 24.81 23.4 74 19 -1.6 29.1
11:00 1011 29.85 840 24.81 23.6 74.5 18 -1.8 28.8
11:05 1011 29.85 840 24.81 23.5 74.2 18 -1.7 28.9
11:10 1011 29.85 840 24.81 23.7 74.6 19 -1.4 29.4
11:15 1011 29.85 840 24.81 23.8 74.8 17 -2.2 28
11:20 1011 29.85 840 24.81 23.8 74.9 17 -2.4 27.6
11:25 1011 29.85 840 24.81 23.9 75 18 -2 28.4
11:30 1011 29.85 840 24.81 23.7 74.7 18 -1.5 29.3
11:35 1011 29.85 840 24.81 23.9 75.1 17 -2.5 27.5
11:40 1010 29.83 840 24.81 24.1 75.3 17 -2.1 28.2
11:45 1010 29.83 840 24.81 24 75.3 18 -1.6 29.1
11:50 1010 29.83 839 24.78 24.5 76.2 17 -2.1 28.2
11:55 1010 29.83 840 24.81 24.2 75.6 16 -3 26.6
12:00 1010 29.83 839 24.78 24 75.2 18 -1.5 29.3
12:05 1010 29.83 839 24.78 24.4 75.9 16 -3.1 26.3
12:10 1010 29.83 839 24.78 24.3 75.7 17 -1.8 28.7
12:15 1010 29.83 839 24.78 24 75.1 18 -1.3 29.7
12:20 1010 29.83 839 24.78 24.1 75.4 17 -2.4 27.8
12:25 1010 29.83 839 24.78 24.1 75.3 17 -2.5 27.5
12:30 1010 29.83 839 24.78 24.5 76.2 16 -3 26.6
12:35 1010 29.83 839 24.78 24.5 76.1 16 -2.5 27.6
12:40 1010 29.83 839 24.78 24.5 76 16 -2.9 26.7
12:45 1010 29.83 839 24.78 24.2 75.5 16 -2.6 27.3
12:50 1010 29.83 839 24.78 23.9 75 16 -2.9 26.8
12:55 1010 29.83 839 24.78 24.1 75.3 17 -2.4 27.6
13:00 1010 29.83 839 24.78 24 75.2 17 -2.2 28
13:05 1010 29.83 839 24.78 24.1 75.4 18 -1.7 29
13:10 1009 29.8 839 24.78 24 75.3 18 -1.5 29.3
13:15 1009 29.8 839 24.78 24 75.2 17 -2.5 27.5
13:20 1009 29.8 838 24.75 23.9 75.1 18 -1.9 28.6
13:25 1009 29.8 838 24.75 24.2 75.6 17 -2.2 28.1
13:30 1009 29.8 838 24.75 24.4 75.9 17 -1.8 28.8
13:35 1009 29.8 838 24.75 24.7 76.5 17 -2 28.5
13:40 1009 29.8 838 24.75 24.6 76.2 15 -3.4 25.8
13:45 1009 29.8 838 24.75 24.3 75.7 17 -1.9 28.7
13:50 1009 29.8 838 24.75 24.4 75.9 15 -3.3 26.1
13:55 1009 29.8 838 24.75 24.5 76.1 17 -2.2 28.1
14:00 1009 29.8 838 24.75 25 77.1 15 -2.9 26.8
14:05 1009 29.8 838 24.75 24.8 76.7 17 -1.4 29.6
14:10 1009 29.8 838 24.75 25.2 77.3 15 -3 26.7
14:15 1008 29.77 838 24.75 25.2 77.3 14 -3.6 25.5
14:20 1008 29.77 837 24.72 25.2 77.4 16 -2.3 27.8
14:25 1008 29.77 837 24.72 25.3 77.5 15 -3.3 26.1
14:30 1008 29.77 837 24.72 25.1 77.1 15 -3.1 26.4
14:35 1008 29.77 837 24.72 25.3 77.5 15 -2.8 27
14:40 1008 29.77 837 24.72 25.5 77.8 15 -2.9 26.8
14:45 1008 29.77 837 24.72 25.5 77.9 16 -2.1 28.1
14:50 1008 29.77 837 24.72 25.8 78.4 15 -2.9 26.7
14:55 1008 29.77 837 24.72 25.6 78 15 -2.7 27.1
15:00 1008 29.77 837 24.72 25.7 78.3 16 -1.6 29.1
15:05 1008 29.77 837 24.72 25.2 77.3 18 -0.3 31.5
15:10 1008 29.77 837 24.72 24.7 76.5 22 1.7 35
15:15 1008 29.77 837 24.72 24.1 75.4 24 2.4 36.4
15:20 1008 29.77 837 24.72 23.9 75 23 1.5 34.8
15:25 1008 29.77 837 24.72 23.6 74.4 22 0.8 33.5
15:30 1008 29.77 837 24.72 23.7 74.7 23 1.5 34.8
15:35 1007 29.74 837 24.72 24 75.2 22 1.2 34.1
15:40 1007 29.74 837 24.72 23.3 74 23 1.1 34
15:45 1007 29.74 837 24.72 23.7 74.7 21 0.4 32.7
15:50 1007 29.74 837 24.72 24.2 75.5 22 1.2 34.2
15:55 1007 29.74 837 24.72 24.5 76.1 21 0.9 33.6
16:00 1007 29.74 837 24.72 24.6 76.2 19 -0 31.9
16:05 1007 29.74 837 24.72 24.6 76.2 20 0.4 32.8
16:10 1007 29.74 836 24.69 24.3 75.7 20 0.3 32.5
16:15 1007 29.74 836 24.69 23.9 75 20 -0.1 31.8
16:20 1007 29.74 836 24.69 24.2 75.5 19 -0.4 31.2
16:25 1007 29.74 836 24.69 24.1 75.4 20 -0.2 31.7
16:30 1007 29.74 836 24.69 24.3 75.7 21 0.8 33.5
16:35 1007 29.74 836 24.69 24.3 75.7 21 0.8 33.5
16:40 1007 29.74 836 24.69 24.3 75.7 21 0.6 33
16:45 1007 29.74 836 24.69 24.5 76 18 -1.5 29.3
16:50 1007 29.74 836 24.69 24.8 76.6 19 0.2 32.3
16:55 1007 29.74 836 24.69 24.8 76.6 18 -0.8 30.6
17:00 1007 29.74 836 24.69 24.9 76.8 17 -1.9 28.6
17:05 1007 29.74 836 24.69 25 77.1 16 -1.9 28.6
17:10 1006 29.71 836 24.69 25.4 77.8 18 -0 31.9
17:15 1006 29.71 836 24.69 25.3 77.6 18 -0.2 31.7
17:20 1006 29.71 835 24.66 24.6 76.3 20 0.4 32.8
17:25 1006 29.71 835 24.66 24.3 75.7 17 -1.8 28.8
17:30 1006 29.71 835 24.66 24.5 76.1 19 -0.6 31
17:35 1006 29.71 835 24.66 24.5 76.1 15 -3.2 26.2
17:40 1006 29.71 835 24.66 24.3 75.7 15 -3.4 25.8
17:45 1006 29.71 835 24.66 24.5 76 15 -4 24.8
17:50 1006 29.71 835 24.66 24.5 76.1 14 -4.2 24.5
17:55 1006 29.71 835 24.66 24.6 76.4 14 -4 24.8
18:00 1006 29.71 835 24.66 24.8 76.7 14 -4 24.7
18:05 1006 29.71 835 24.66 24.9 76.7 14 -4.1 24.5
18:10 1006 29.71 835 24.66 24.8 76.6 15 -3.8 25.2
18:15 1006 29.71 835 24.66 25 77 15 -3.5 25.7
18:20 1005 29.68 835 24.66 25.2 77.3 14 -4.3 24.3
18:25 1005 29.68 835 24.66 25.1 77.2 15 -3.2 26.2
18:30 1005 29.68 834 24.63 25.1 77.3 14 -3.6 25.5
18:35 1005 29.68 834 24.63 25 77 14 -4 24.7
18:40 1005 29.68 834 24.63 24.8 76.6 14 -4.2 24.5
18:45 1005 29.68 834 24.63 24.8 76.6 14 -4.6 23.7
18:50 1005 29.68 834 24.63 24.8 76.6 14 -4.2 24.4
18:55 1005 29.68 834 24.63 24.5 76.1 14 -4.6 23.8
19:00 1005 29.68 834 24.63 24.2 75.6 15 -4 24.9
19:05 1005 29.68 834 24.63 24.1 75.3 14 -4.6 23.7
19:10 1005 29.68 834 24.63 24.1 75.3 14 -4.5 24
19:15 1005 29.68 834 24.63 23.9 75 15 -4.4 24.1
19:20 1005 29.68 834 24.63 23.7 74.7 15 -4.3 24.2
19:25 1005 29.68 834 24.63 23.7 74.7 15 -4.3 24.3
19:30 1005 29.68 834 24.63 23.8 74.8 15 -4.4 24.1
19:35 1005 29.68 834 24.63 23.7 74.6 15 -3.9 24.9
19:40 1005 29.68 834 24.63 23.7 74.6 15 -4.2 24.4
19:45 1005 29.68 834 24.63 23.6 74.5 16 -3.1 26.4
19:50 1005 29.68 834 24.63 23.4 74.2 15 -4.2 24.5
19:55 1005 29.68 834 24.63 23.5 74.2 17 -2.9 26.7
20:00 1005 29.68 834 24.63 23.3 73.9 17 -2.7 27.1
20:05 1005 29.68 834 24.63 23.3 74 15 -4.2 24.4
20:10 1005 29.68 834 24.63 23.3 74 17 -2.9 26.8
20:15 1005 29.68 834 24.63 23.1 73.5 18 -2.7 27.2
20:20 1005 29.68 834 24.63 22.9 73.2 18 -2.5 27.5
20:25 1005 29.68 834 24.63 22.8 73.1 18 -2.7 27.1
20:30 1005 29.68 834 24.63 22.6 72.6 20 -1.5 29.4
20:35 1005 29.68 834 24.63 22.1 71.8 21 -1.2 29.8
20:40 1005 29.68 834 24.63 21.7 71.1 22 -1 30.1
20:45 1005 29.68 834 24.63 21.5 70.8 22 -1.2 29.9
20:50 1005 29.68 834 24.63 21.4 70.6 22 -1 30.1
20:55 1005 29.68 834 24.63 21.3 70.4 22 -1 30.3
21:00 1005 29.68 834 24.63 21.2 70.2 22 -0.9 30.5
21:05 1005 29.68 834 24.63 21.1 69.9 23 -0.9 30.4
21:10 1005 29.68 834 24.63 21 69.7 23 -0.8 30.6
21:15 1005 29.68 834 24.63 20.9 69.5 23 -0.9 30.5
21:20 1005 29.68 835 24.66 20.3 68.5 30 2.3 36.2
21:25 1006 29.71 835 24.66 18.7 65.6 36 3.6 38.4
21:30 1006 29.71 835 24.66 16.9 62.4 44 4.7 40.5
21:35 1006 29.71 835 24.66 15.3 59.5 49 4.8 40.6
21:40 1006 29.71 836 24.69 14 57.2 52 4.4 39.9
21:45 1007 29.74 836 24.69 13.2 55.8 53 4 39.2
21:50 1008 29.77 837 24.72 12.5 54.6 56 4 39.2
21:55 1008 29.77 838 24.75 11.7 53.1 58 3.8 38.8
22:00 1009 29.8 838 24.75 11.3 52.4 58 3.4 38.2
22:05 1009 29.8 838 24.75 11.2 52.2 58 3.4 38
22:10 1010 29.83 839 24.78 11.2 52.2 56 2.7 36.9
22:15 1010 29.83 839 24.78 11 51.9 55 2.4 36.4
22:20 1010 29.83 839 24.78 10.7 51.3 56 2.4 36.2
22:25 1011 29.85 840 24.81 10.6 51.1 57 2.6 36.6
22:30 1011 29.85 840 24.81 10.3 50.6 59 2.7 36.8
22:35 1011 29.85 840 24.81 10 50.1 61 2.8 37.1
22:40 1011 29.85 840 24.81 9.6 49.3 63 3 37.5
22:45 1012 29.88 841 24.83 9 48.1 66 3.1 37.5
22:50 1011 29.85 841 24.83 8.4 47 69 3 37.5
22:55 1012 29.88 841 24.83 8 46.5 72 3.3 38
23:00 1012 29.88 841 24.83 7.7 45.8 75 3.6 38.5
23:05 1012 29.88 841 24.83 7.4 45.3 74 3.1 37.6
23:10 1012 29.88 841 24.83 7 44.7 75 2.9 37.1
23:15 1012 29.88 841 24.83 6.7 44 76 2.8 37.1
23:20 1013 29.91 842 24.86 6.5 43.8 79 3.1 37.6
23:25 1013 29.91 842 24.86 6.2 43.2 78 2.7 36.9
23:30 1012 29.88 841 24.83 6 42.8 79 2.7 36.8
23:35 1013 29.91 842 24.86 5.9 42.6 79 2.6 36.7
23:40 1013 29.91 842 24.86 5.7 42.3 82 2.8 37.1
23:45 1013 29.91 842 24.86 5.5 41.9 83 2.8 37
23:50 1012 29.88 842 24.86 5.3 41.6 82 2.6 36.6
23:55 1013 29.91 842 24.86 5.2 41.3 83 2.5 36.6
24:00 1013 29.91 842 24.86 5 41.1 84 2.6 36.7